Airfield :
LOGIN :

Register | Disclaimer

   EN    FR    IT 

 










Legend :    VFR   Marginal VFR   IFR   Intensive IFR   Very Intensive IFR
Visi :
Ceiling :
>= 8 km
>= 3000ft
5 to 8 km
1000 to 3000 ft
1500m to 5 km
500 to 1000 ft
800 to 1500m
200 to 500 ft
< 800m
< 200 ft
Symbols :   Thunderstorms  Fog  Heavy snow  Heavy precipitations  Wind > 20 kt
SIGMETs :     Misc.  Thunderstorms  Icing  Turbulence  Mountain Waves  Volcanic Ashes






- Airport Elevation : 249 ft


EGOS - RAF Shawbury

CURRENT METAR :
  • 131050Z 11006KT 9999 SCT018 23/18 Q1014 TEMPO FEW020 RMK WHT TEMPO BLU

EXPIRED METARs :
  • 131021Z 11008KT 9999 FEW015 SCT060 22/19 Q1014 TEMPO SCT018 RMK BLU TEMPO WHT
  • 131008Z 09006KT 9999 SCT014 SCT070 22/18 Q1014 TEMPO FEW014 RMK GRN TEMPO FEW
  • 130950Z 10008KT 9999 FEW015 SCT070 21/18 Q1014 TEMPO SCT016 RMK BLU TEMPO WHT
  • 130920Z 08007KT 9999 FEW015 22/18 Q1014 TEMPO SCT018 RMK BLU TEMPO WHT
  • 130850Z 06006KT 9999 FEW012 21/18 Q1014 TEMPO SCT016 RMK BLU TEMPO WHT

TAF TAF EGOS
Valid from the 13 at 12:00 until the 13 at 19:00 UTC


131032Z 1312/1319 08006KT 9999 FEW020
TEMPO 1312/1319 6000 SHRA
PROB40
TEMPO 1312/1319 VRB15G25KT 3000 +SHRA +TSGR SCT020 BKN040CB



MET'MAP, your aeronautical weather chart ! - Copyright ORBIFLY December 2007 - Disclaimer

ORBIFLY MET'MAP TEAM :

Programming & Development : Alexandra Zaïnal
Concept & original design : Baudouin d'Aumeries
Assistance for programming : Marc-Olivier Méhu
Technical & hardware support : Manuel Goepfert

Contact : metmap@orbifly.com




SOURCES & CREDITS :

   NOAA